sensor_id;sensor_type;location;lat;lon;timestamp;pressure;altitude;pressure_sealevel;temperature;humidity
33265;BME280;31404;53.974;-1.086;2024-01-15T00:00:44;100903.85;;;-2.19;84.68
33265;BME280;31404;53.974;-1.086;2024-01-15T00:05:42;100896.24;;;-2.63;86.46
33265;BME280;31404;53.974;-1.086;2024-01-15T00:10:42;100890.21;;;-1.60;80.83
33265;BME280;31404;53.974;-1.086;2024-01-15T00:15:43;100884.14;;;-2.32;87.04
33265;BME280;31404;53.974;-1.086;2024-01-15T00:20:43;100871.83;;;-2.60;86.95
33265;BME280;31404;53.974;-1.086;2024-01-15T00:25:42;100868.11;;;-0.85;78.32
33265;BME280;31404;53.974;-1.086;2024-01-15T00:30:41;100855.72;;;-0.26;74.15
33265;BME280;31404;53.974;-1.086;2024-01-15T00:35:39;100863.03;;;-2.30;81.45
33265;BME280;31404;53.974;-1.086;2024-01-15T00:40:39;100857.00;;;-2.06;82.44
33265;BME280;31404;53.974;-1.086;2024-01-15T00:45:39;100852.96;;;-2.28;82.91
33265;BME280;31404;53.974;-1.086;2024-01-15T00:50:39;100855.21;;;-1.86;80.38
33265;BME280;31404;53.974;-1.086;2024-01-15T00:55:39;100858.83;;;-3.40;89.47
33265;BME280;31404;53.974;-1.086;2024-01-15T01:00:39;100852.02;;;-2.90;89.16
33265;BME280;31404;53.974;-1.086;2024-01-15T01:05:38;100841.17;;;-0.88;77.64
33265;BME280;31404;53.974;-1.086;2024-01-15T01:10:39;100844.82;;;-1.11;77.38
33265;BME280;31404;53.974;-1.086;2024-01-15T01:15:39;100840.57;;;-0.58;75.26
33265;BME280;31404;53.974;-1.086;2024-01-15T01:20:39;100833.15;;;-0.62;74.28
33265;BME280;31404;53.974;-1.086;2024-01-15T01:25:40;100826.89;;;-0.35;73.26
33265;BME280;31404;53.974;-1.086;2024-01-15T01:30:39;100834.51;;;-0.83;73.70
33265;BME280;31404;53.974;-1.086;2024-01-15T01:35:38;100836.83;;;-2.39;81.88
33265;BME280;31404;53.974;-1.086;2024-01-15T01:40:39;100832.29;;;-1.77;78.81
33265;BME280;31404;53.974;-1.086;2024-01-15T01:45:38;100834.64;;;-3.47;83.97
33265;BME280;31404;53.974;-1.086;2024-01-15T01:50:37;100833.66;;;-3.05;84.87
33265;BME280;31404;53.974;-1.086;2024-01-15T01:55:35;100827.25;;;-2.56;82.79
33265;BME280;31404;53.974;-1.086;2024-01-15T02:00:41;100824.94;;;-3.12;86.58
33265;BME280;31404;53.974;-1.086;2024-01-15T02:05:40;100821.62;;;-3.24;86.16
33265;BME280;31404;53.974;-1.086;2024-01-15T02:10:38;100835.19;;;-2.79;83.51
33265;BME280;31404;53.974;-1.086;2024-01-15T02:15:38;100833.23;;;-3.23;87.22
33265;BME280;31404;53.974;-1.086;2024-01-15T02:20:41;100827.04;;;-3.23;86.09
33265;BME280;31404;53.974;-1.086;2024-01-15T02:25:41;100827.11;;;-3.26;86.71
33265;BME280;31404;53.974;-1.086;2024-01-15T02:30:39;100829.13;;;-3.59;85.62
33265;BME280;31404;53.974;-1.086;2024-01-15T02:35:38;100823.12;;;-3.78;88.94
33265;BME280;31404;53.974;-1.086;2024-01-15T02:40:39;100822.69;;;-4.18;89.36
33265;BME280;31404;53.974;-1.086;2024-01-15T02:45:34;100809.35;;;-3.45;85.89
33265;BME280;31404;53.974;-1.086;2024-01-15T02:50:38;100809.41;;;-1.26;77.83
33265;BME280;31404;53.974;-1.086;2024-01-15T02:55:39;100806.46;;;-1.56;77.64
33265;BME280;31404;53.974;-1.086;2024-01-15T03:00:37;100801.02;;;-1.85;77.61
33265;BME280;31404;53.974;-1.086;2024-01-15T03:05:40;100794.50;;;-2.59;78.91
33265;BME280;31404;53.974;-1.086;2024-01-15T03:10:38;100776.46;;;-0.73;75.07
33265;BME280;31404;53.974;-1.086;2024-01-15T03:15:39;100794.03;;;-3.07;83.05
33265;BME280;31404;53.974;-1.086;2024-01-15T03:20:37;100795.35;;;-2.56;81.92
33265;BME280;31404;53.974;-1.086;2024-01-15T03:25:38;100794.74;;;-3.67;85.63
33265;BME280;31404;53.974;-1.086;2024-01-15T03:30:39;100787.97;;;-2.99;83.19
33265;BME280;31404;53.974;-1.086;2024-01-15T03:35:36;100780.77;;;-2.72;85.51
33265;BME280;31404;53.974;-1.086;2024-01-15T03:40:39;100780.33;;;-3.02;83.20
33265;BME280;31404;53.974;-1.086;2024-01-15T03:45:37;100784.86;;;-2.95;82.77
33265;BME280;31404;53.974;-1.086;2024-01-15T03:50:38;100787.09;;;-1.31;76.59
33265;BME280;31404;53.974;-1.086;2024-01-15T03:55:37;100784.55;;;-1.58;78.51
33265;BME280;31404;53.974;-1.086;2024-01-15T04:00:38;100785.10;;;-1.43;75.54
33265;BME280;31404;53.974;-1.086;2024-01-15T04:05:39;100786.93;;;-1.63;77.16
33265;BME280;31404;53.974;-1.086;2024-01-15T04:10:38;100774.85;;;-1.14;76.02
33265;BME280;31404;53.974;-1.086;2024-01-15T04:15:38;100775.90;;;-1.01;75.44
33265;BME280;31404;53.974;-1.086;2024-01-15T04:20:34;100792.42;;;-3.11;83.09
33265;BME280;31404;53.974;-1.086;2024-01-15T04:25:38;100778.13;;;-4.26;90.21
33265;BME280;31404;53.974;-1.086;2024-01-15T04:30:37;100774.82;;;-4.06;92.98
33265;BME280;31404;53.974;-1.086;2024-01-15T04:35:44;100773.95;;;-3.99;96.66
33265;BME280;31404;53.974;-1.086;2024-01-15T04:40:39;100767.51;;;-4.19;97.72
33265;BME280;31404;53.974;-1.086;2024-01-15T04:45:37;100765.69;;;-3.55;94.41
33265;BME280;31404;53.974;-1.086;2024-01-15T04:50:40;100753.41;;;-4.02;95.30
33265;BME280;31404;53.974;-1.086;2024-01-15T04:55:35;100755.09;;;-4.38;97.40
33265;BME280;31404;53.974;-1.086;2024-01-15T05:00:39;100763.98;;;-4.39;98.10
33265;BME280;31404;53.974;-1.086;2024-01-15T05:05:39;100770.35;;;-4.56;99.00
33265;BME280;31404;53.974;-1.086;2024-01-15T05:10:35;100769.20;;;-4.87;99.83
33265;BME280;31404;53.974;-1.086;2024-01-15T05:15:40;100779.86;;;-3.95;95.68
33265;BME280;31404;53.974;-1.086;2024-01-15T05:20:39;100784.51;;;-3.77;92.30
33265;BME280;31404;53.974;-1.086;2024-01-15T05:25:39;100791.44;;;-3.74;92.06
33265;BME280;31404;53.974;-1.086;2024-01-15T05:30:38;100795.10;;;-4.19;94.99
33265;BME280;31404;53.974;-1.086;2024-01-15T05:35:39;100802.08;;;-3.48;91.07
33265;BME280;31404;53.974;-1.086;2024-01-15T05:40:38;100797.06;;;-3.59;89.65
33265;BME280;31404;53.974;-1.086;2024-01-15T05:45:38;100790.51;;;-3.64;90.08
33265;BME280;31404;53.974;-1.086;2024-01-15T05:50:38;100795.41;;;-4.31;91.02
33265;BME280;31404;53.974;-1.086;2024-01-15T05:55:38;100792.28;;;-4.19;91.85
33265;BME280;31404;53.974;-1.086;2024-01-15T06:00:38;100794.99;;;-4.17;90.86
33265;BME280;31404;53.974;-1.086;2024-01-15T06:05:37;100784.95;;;-3.32;87.85
33265;BME280;31404;53.974;-1.086;2024-01-15T06:10:37;100784.73;;;-3.17;85.69
33265;BME280;31404;53.974;-1.086;2024-01-15T06:15:39;100780.55;;;-3.33;86.51
33265;BME280;31404;53.974;-1.086;2024-01-15T06:20:35;100781.86;;;-3.86;91.82
33265;BME280;31404;53.974;-1.086;2024-01-15T06:25:43;100781.91;;;-4.41;92.37
33265;BME280;31404;53.974;-1.086;2024-01-15T06:30:40;100782.52;;;-4.30;90.24
33265;BME280;31404;53.974;-1.086;2024-01-15T06:35:35;100768.89;;;-3.79;88.02
33265;BME280;31404;53.974;-1.086;2024-01-15T06:40:37;100771.01;;;-3.35;86.08
33265;BME280;31404;53.974;-1.086;2024-01-15T06:45:37;100772.16;;;-3.38;86.07
33265;BME280;31404;53.974;-1.086;2024-01-15T06:50:45;100778.24;;;-4.07;88.62
33265;BME280;31404;53.974;-1.086;2024-01-15T06:55:42;100781.49;;;-3.57;87.09
33265;BME280;31404;53.974;-1.086;2024-01-15T07:00:41;100796.77;;;-4.31;89.41
33265;BME280;31404;53.974;-1.086;2024-01-15T07:05:41;100801.50;;;-3.97;87.49
33265;BME280;31404;53.974;-1.086;2024-01-15T07:10:37;100808.66;;;-4.73;90.93
33265;BME280;31404;53.974;-1.086;2024-01-15T07:15:37;100816.23;;;-3.76;86.99
33265;BME280;31404;53.974;-1.086;2024-01-15T07:20:39;100825.46;;;-3.90;86.87
33265;BME280;31404;53.974;-1.086;2024-01-15T07:25:40;100824.22;;;-3.47;83.75
33265;BME280;31404;53.974;-1.086;2024-01-15T07:30:39;100827.79;;;-3.79;86.89
33265;BME280;31404;53.974;-1.086;2024-01-15T07:35:38;100829.46;;;-4.19;88.19
33265;BME280;31404;53.974;-1.086;2024-01-15T07:40:39;100838.01;;;-4.29;86.00
33265;BME280;31404;53.974;-1.086;2024-01-15T07:45:38;100844.65;;;-4.11;86.20
33265;BME280;31404;53.974;-1.086;2024-01-15T07:50:37;100842.97;;;-4.01;86.58
33265;BME280;31404;53.974;-1.086;2024-01-15T07:55:38;100850.46;;;-4.38;86.15
33265;BME280;31404;53.974;-1.086;2024-01-15T08:00:40;100860.49;;;-4.36;87.15
33265;BME280;31404;53.974;-1.086;2024-01-15T08:05:39;100861.24;;;-4.57;87.78
33265;BME280;31404;53.974;-1.086;2024-01-15T08:10:39;100867.96;;;-4.98;88.58
33265;BME280;31404;53.974;-1.086;2024-01-15T08:15:39;100880.87;;;-5.13;88.52
33265;BME280;31404;53.974;-1.086;2024-01-15T08:20:39;100886.67;;;-4.50;87.09
33265;BME280;31404;53.974;-1.086;2024-01-15T08:25:39;100880.73;;;-4.24;86.29
33265;BME280;31404;53.974;-1.086;2024-01-15T08:30:38;100884.08;;;-3.96;84.88
33265;BME280;31404;53.974;-1.086;2024-01-15T08:35:37;100897.21;;;-3.80;82.40
33265;BME280;31404;53.974;-1.086;2024-01-15T08:40:38;100911.78;;;-3.97;83.69
33265;BME280;31404;53.974;-1.086;2024-01-15T08:45:39;100907.41;;;-3.41;79.75
33265;BME280;31404;53.974;-1.086;2024-01-15T08:50:39;100917.45;;;-3.70;81.38
33265;BME280;31404;53.974;-1.086;2024-01-15T08:55:39;100931.54;;;-4.61;84.64
33265;BME280;31404;53.974;-1.086;2024-01-15T09:00:39;100933.95;;;-4.02;83.23
33265;BME280;31404;53.974;-1.086;2024-01-15T09:10:38;100927.63;;;-4.35;80.81
33265;BME280;31404;53.974;-1.086;2024-01-15T09:15:38;100927.75;;;-4.83;84.82
33265;BME280;31404;53.974;-1.086;2024-01-15T09:20:35;100922.63;;;-4.54;83.78
33265;BME280;31404;53.974;-1.086;2024-01-15T09:25:37;100922.13;;;-4.80;84.76
33265;BME280;31404;53.974;-1.086;2024-01-15T09:30:40;100926.13;;;-4.82;83.85
33265;BME280;31404;53.974;-1.086;2024-01-15T09:35:38;100934.91;;;-4.81;84.38
33265;BME280;31404;53.974;-1.086;2024-01-15T09:40:38;100947.63;;;-4.33;80.94
33265;BME280;31404;53.974;-1.086;2024-01-15T09:45:40;100944.14;;;-3.34;77.46
33265;BME280;31404;53.974;-1.086;2024-01-15T09:50:37;100944.20;;;-2.74;76.21
33265;BME280;31404;53.974;-1.086;2024-01-15T09:55:38;100953.20;;;-3.15;78.12
33265;BME280;31404;53.974;-1.086;2024-01-15T10:00:39;100961.63;;;-4.12;81.29
33265;BME280;31404;53.974;-1.086;2024-01-15T10:05:38;100966.62;;;-4.28;81.92
33265;BME280;31404;53.974;-1.086;2024-01-15T10:10:38;100972.67;;;-3.97;81.79
33265;BME280;31404;53.974;-1.086;2024-01-15T10:15:39;100971.09;;;-4.19;80.16
33265;BME280;31404;53.974;-1.086;2024-01-15T10:20:40;100975.54;;;-4.18;78.48
33265;BME280;31404;53.974;-1.086;2024-01-15T10:25:38;100970.15;;;-4.51;82.52
33265;BME280;31404;53.974;-1.086;2024-01-15T10:30:39;100970.85;;;-4.26;81.39
33265;BME280;31404;53.974;-1.086;2024-01-15T10:35:38;100975.23;;;-4.42;82.14
33265;BME280;31404;53.974;-1.086;2024-01-15T10:40:37;100965.09;;;-4.77;80.31
33265;BME280;31404;53.974;-1.086;2024-01-15T10:45:38;100977.62;;;-4.73;80.48
33265;BME280;31404;53.974;-1.086;2024-01-15T10:50:37;100977.37;;;-4.36;79.65
33265;BME280;31404;53.974;-1.086;2024-01-15T10:55:39;100982.49;;;-3.95;77.02
33265;BME280;31404;53.974;-1.086;2024-01-15T11:00:39;100981.53;;;-4.11;77.01
33265;BME280;31404;53.974;-1.086;2024-01-15T11:05:39;100995.59;;;-4.92;80.13
33265;BME280;31404;53.974;-1.086;2024-01-15T11:10:39;100998.40;;;-4.35;77.75
33265;BME280;31404;53.974;-1.086;2024-01-15T11:20:38;101001.48;;;-3.93;77.25
33265;BME280;31404;53.974;-1.086;2024-01-15T11:25:35;100994.59;;;-3.94;75.96
33265;BME280;31404;53.974;-1.086;2024-01-15T11:30:37;100990.66;;;-3.40;75.07
33265;BME280;31404;53.974;-1.086;2024-01-15T11:40:39;101000.92;;;-3.07;72.83
33265;BME280;31404;53.974;-1.086;2024-01-15T11:45:39;100997.07;;;-3.99;75.11
33265;BME280;31404;53.974;-1.086;2024-01-15T11:50:40;101001.71;;;-2.88;73.54
33265;BME280;31404;53.974;-1.086;2024-01-15T11:55:39;101007.22;;;-2.73;72.74
33265;BME280;31404;53.974;-1.086;2024-01-15T12:00:40;101016.02;;;-3.67;73.19
33265;BME280;31404;53.974;-1.086;2024-01-15T12:05:38;101011.85;;;-2.76;71.57
33265;BME280;31404;53.974;-1.086;2024-01-15T12:10:41;101019.56;;;-3.59;73.11
33265;BME280;31404;53.974;-1.086;2024-01-15T12:15:39;101016.26;;;-3.53;75.08
33265;BME280;31404;53.974;-1.086;2024-01-15T12:20:39;101024.10;;;-3.27;74.25
33265;BME280;31404;53.974;-1.086;2024-01-15T12:25:39;101011.57;;;-2.32;96.17
33265;BME280;31404;53.974;-1.086;2024-01-15T12:30:39;101005.67;;;-4.05;75.10
33265;BME280;31404;53.974;-1.086;2024-01-15T12:35:39;101010.78;;;-3.81;73.45
33265;BME280;31404;53.974;-1.086;2024-01-15T12:45:39;101006.10;;;-2.57;71.34
33265;BME280;31404;53.974;-1.086;2024-01-15T12:50:38;101010.61;;;-2.83;70.58
33265;BME280;31404;53.974;-1.086;2024-01-15T12:55:37;101011.94;;;-2.67;71.49
33265;BME280;31404;53.974;-1.086;2024-01-15T13:00:37;101017.79;;;-2.60;69.36
33265;BME280;31404;53.974;-1.086;2024-01-15T13:05:39;101017.02;;;-2.36;69.24
33265;BME280;31404;53.974;-1.086;2024-01-15T13:10:37;101018.91;;;-1.94;68.28
33265;BME280;31404;53.974;-1.086;2024-01-15T13:15:37;101012.41;;;-2.85;69.53
33265;BME280;31404;53.974;-1.086;2024-01-15T13:20:37;101024.56;;;-2.50;69.82
33265;BME280;31404;53.974;-1.086;2024-01-15T13:25:39;101019.05;;;-3.14;71.01
33265;BME280;31404;53.974;-1.086;2024-01-15T13:30:38;101018.27;;;-2.37;69.05
33265;BME280;31404;53.974;-1.086;2024-01-15T13:35:38;101022.41;;;-2.94;70.27
33265;BME280;31404;53.974;-1.086;2024-01-15T13:40:48;101021.41;;;-2.33;68.44
33265;BME280;31404;53.974;-1.086;2024-01-15T13:45:37;101021.65;;;-1.98;67.57
33265;BME280;31404;53.974;-1.086;2024-01-15T13:50:37;101022.98;;;-1.64;65.98
33265;BME280;31404;53.974;-1.086;2024-01-15T13:55:38;101019.30;;;-2.21;66.01
33265;BME280;31404;53.974;-1.086;2024-01-15T14:00:38;101020.79;;;-3.31;69.12
33265;BME280;31404;53.974;-1.086;2024-01-15T14:05:37;101020.63;;;-2.68;67.52
33265;BME280;31404;53.974;-1.086;2024-01-15T14:10:37;101011.37;;;-2.39;68.49
33265;BME280;31404;53.974;-1.086;2024-01-15T14:15:37;101010.26;;;-2.70;68.23
33265;BME280;31404;53.974;-1.086;2024-01-15T14:20:43;101011.56;;;-2.15;67.12
33265;BME280;31404;53.974;-1.086;2024-01-15T14:25:37;101017.98;;;-2.73;68.13
33265;BME280;31404;53.974;-1.086;2024-01-15T14:30:35;101015.69;;;-2.69;67.03
33265;BME280;31404;53.974;-1.086;2024-01-15T14:35:39;101021.63;;;-2.78;66.58
33265;BME280;31404;53.974;-1.086;2024-01-15T14:40:39;101020.46;;;-3.23;68.39
33265;BME280;31404;53.974;-1.086;2024-01-15T14:45:35;101027.54;;;-2.01;65.80
33265;BME280;31404;53.974;-1.086;2024-01-15T14:50:38;101026.07;;;-1.52;66.40
33265;BME280;31404;53.974;-1.086;2024-01-15T14:55:38;101016.42;;;-0.57;64.90
33265;BME280;31404;53.974;-1.086;2024-01-15T15:00:38;101027.23;;;-1.64;68.44
33265;BME280;31404;53.974;-1.086;2024-01-15T15:05:38;101029.95;;;-2.33;70.07
33265;BME280;31404;53.974;-1.086;2024-01-15T15:10:39;101028.53;;;-1.63;69.66
33265;BME280;31404;53.974;-1.086;2024-01-15T15:15:39;101035.52;;;-1.86;70.60
33265;BME280;31404;53.974;-1.086;2024-01-15T15:20:39;101040.64;;;-1.88;71.03
33265;BME280;31404;53.974;-1.086;2024-01-15T15:25:40;101041.57;;;-1.06;67.09
33265;BME280;31404;53.974;-1.086;2024-01-15T15:30:44;101041.95;;;-0.33;66.01
33265;BME280;31404;53.974;-1.086;2024-01-15T15:35:38;101046.13;;;0.15;63.18
33265;BME280;31404;53.974;-1.086;2024-01-15T15:40:42;101049.16;;;0.71;63.14
33265;BME280;31404;53.974;-1.086;2024-01-15T15:45:42;101058.29;;;-2.22;70.42
33265;BME280;31404;53.974;-1.086;2024-01-15T15:50:41;101060.54;;;-1.45;69.17
33265;BME280;31404;53.974;-1.086;2024-01-15T15:55:39;101068.61;;;-2.17;71.07
33265;BME280;31404;53.974;-1.086;2024-01-15T16:00:39;101065.69;;;-1.34;67.65
33265;BME280;31404;53.974;-1.086;2024-01-15T16:05:37;101063.45;;;-0.00;64.41
33265;BME280;31404;53.974;-1.086;2024-01-15T16:10:38;101065.54;;;-0.56;65.00
33265;BME280;31404;53.974;-1.086;2024-01-15T16:15:37;101067.52;;;-0.27;63.64
33265;BME280;31404;53.974;-1.086;2024-01-15T16:20:38;101073.88;;;0.97;62.13
33265;BME280;31404;53.974;-1.086;2024-01-15T16:25:37;101077.60;;;1.07;61.24
33265;BME280;31404;53.974;-1.086;2024-01-15T16:30:38;101085.80;;;0.97;84.08
33265;BME280;31404;53.974;-1.086;2024-01-15T16:35:38;101087.98;;;0.45;66.86
33265;BME280;31404;53.974;-1.086;2024-01-15T16:40:38;101096.97;;;-0.83;67.27
33265;BME280;31404;53.974;-1.086;2024-01-15T16:45:37;101095.13;;;-0.86;66.70
33265;BME280;31404;53.974;-1.086;2024-01-15T16:50:38;101096.01;;;-2.38;72.61
33265;BME280;31404;53.974;-1.086;2024-01-15T16:55:35;101091.27;;;-2.11;73.94
33265;BME280;31404;53.974;-1.086;2024-01-15T17:00:38;101089.11;;;-2.83;76.63
33265;BME280;31404;53.974;-1.086;2024-01-15T17:05:38;101086.50;;;-2.37;73.83
33265;BME280;31404;53.974;-1.086;2024-01-15T17:10:38;101083.21;;;-2.25;74.22
33265;BME280;31404;53.974;-1.086;2024-01-15T17:15:40;101081.19;;;-2.45;73.89
33265;BME280;31404;53.974;-1.086;2024-01-15T17:20:38;101083.52;;;-2.03;73.01
33265;BME280;31404;53.974;-1.086;2024-01-15T17:25:36;101083.16;;;-1.83;73.38
33265;BME280;31404;53.974;-1.086;2024-01-15T17:30:38;101091.60;;;-0.68;70.26
33265;BME280;31404;53.974;-1.086;2024-01-15T17:35:38;101091.93;;;0.40;65.16
33265;BME280;31404;53.974;-1.086;2024-01-15T17:40:39;101100.58;;;-1.07;68.78
33265;BME280;31404;53.974;-1.086;2024-01-15T17:45:40;101105.84;;;-1.92;71.77
33265;BME280;31404;53.974;-1.086;2024-01-15T17:50:37;101112.88;;;-1.21;70.53
33265;BME280;31404;53.974;-1.086;2024-01-15T17:55:37;101111.83;;;-0.56;68.89
33265;BME280;31404;53.974;-1.086;2024-01-15T18:00:38;101109.65;;;-0.13;65.14
33265;BME280;31404;53.974;-1.086;2024-01-15T18:05:38;101117.31;;;-1.65;68.97
33265;BME280;31404;53.974;-1.086;2024-01-15T18:10:39;101110.36;;;-1.03;68.23
33265;BME280;31404;53.974;-1.086;2024-01-15T18:15:38;101105.63;;;-1.29;68.81
33265;BME280;31404;53.974;-1.086;2024-01-15T18:20:37;101097.64;;;-0.07;65.61
33265;BME280;31404;53.974;-1.086;2024-01-15T18:25:39;101109.38;;;-1.37;69.13
33265;BME280;31404;53.974;-1.086;2024-01-15T18:30:37;101118.89;;;-0.66;65.70
33265;BME280;31404;53.974;-1.086;2024-01-15T18:35:37;101114.42;;;-0.31;65.32
33265;BME280;31404;53.974;-1.086;2024-01-15T18:40:40;101120.86;;;-1.02;67.78
33265;BME280;31404;53.974;-1.086;2024-01-15T18:45:42;101115.67;;;-0.59;65.61
33265;BME280;31404;53.974;-1.086;2024-01-15T18:50:38;101107.56;;;-0.32;63.11
33265;BME280;31404;53.974;-1.086;2024-01-15T18:55:39;101105.98;;;0.88;62.19
33265;BME280;31404;53.974;-1.086;2024-01-15T19:00:38;101103.04;;;0.95;61.89
33265;BME280;31404;53.974;-1.086;2024-01-15T19:05:39;101104.27;;;-0.20;62.04
33265;BME280;31404;53.974;-1.086;2024-01-15T19:10:42;101107.48;;;-0.34;65.65
33265;BME280;31404;53.974;-1.086;2024-01-15T19:15:38;101113.96;;;-0.13;63.89
33265;BME280;31404;53.974;-1.086;2024-01-15T19:20:39;101135.93;;;-2.88;72.09
33265;BME280;31404;53.974;-1.086;2024-01-15T19:25:38;101131.51;;;-2.36;73.74
33265;BME280;31404;53.974;-1.086;2024-01-15T19:30:36;101117.99;;;-1.21;68.37
33265;BME280;31404;53.974;-1.086;2024-01-15T19:35:37;101117.38;;;-0.17;64.86
33265;BME280;31404;53.974;-1.086;2024-01-15T19:40:37;101127.65;;;-0.23;64.82
33265;BME280;31404;53.974;-1.086;2024-01-15T19:45:35;101138.70;;;-2.13;69.09
33265;BME280;31404;53.974;-1.086;2024-01-15T19:50:38;101135.90;;;-2.28;71.79
33265;BME280;31404;53.974;-1.086;2024-01-15T19:55:39;101132.66;;;-1.43;70.80
33265;BME280;31404;53.974;-1.086;2024-01-15T20:00:40;101128.01;;;-0.01;63.91
33265;BME280;31404;53.974;-1.086;2024-01-15T20:10:38;101129.97;;;-1.73;69.15
33265;BME280;31404;53.974;-1.086;2024-01-15T20:15:37;101126.75;;;-0.87;66.60
33265;BME280;31404;53.974;-1.086;2024-01-15T20:20:35;101122.22;;;-0.66;64.91
33265;BME280;31404;53.974;-1.086;2024-01-15T20:25:39;101119.16;;;1.26;60.70
33265;BME280;31404;53.974;-1.086;2024-01-15T20:30:39;101122.69;;;1.25;60.14
33265;BME280;31404;53.974;-1.086;2024-01-15T20:35:39;101122.62;;;2.08;58.03
33265;BME280;31404;53.974;-1.086;2024-01-15T20:40:38;101128.04;;;0.86;58.18
33265;BME280;31404;53.974;-1.086;2024-01-15T20:45:38;101132.52;;;-2.01;66.91
33265;BME280;31404;53.974;-1.086;2024-01-15T20:50:38;101116.61;;;-0.06;63.13
33265;BME280;31404;53.974;-1.086;2024-01-15T20:55:35;101124.52;;;-2.21;68.73
33265;BME280;31404;53.974;-1.086;2024-01-15T21:00:37;101113.85;;;1.37;60.78
33265;BME280;31404;53.974;-1.086;2024-01-15T21:05:39;101120.34;;;0.59;61.45
33265;BME280;31404;53.974;-1.086;2024-01-15T21:10:39;101136.54;;;-0.64;63.90
33265;BME280;31404;53.974;-1.086;2024-01-15T21:15:42;101126.58;;;0.89;61.48
33265;BME280;31404;53.974;-1.086;2024-01-15T21:20:42;101112.64;;;-1.79;65.01
33265;BME280;31404;53.974;-1.086;2024-01-15T21:25:41;101114.41;;;-1.32;65.14
33265;BME280;31404;53.974;-1.086;2024-01-15T21:30:41;101112.55;;;-1.39;65.95
33265;BME280;31404;53.974;-1.086;2024-01-15T21:35:42;101109.32;;;0.33;62.04
33265;BME280;31404;53.974;-1.086;2024-01-15T21:40:41;101126.14;;;-1.56;65.67
33265;BME280;31404;53.974;-1.086;2024-01-15T21:45:42;101119.85;;;-0.76;65.44
33265;BME280;31404;53.974;-1.086;2024-01-15T21:50:43;101110.59;;;-0.52;62.15
33265;BME280;31404;53.974;-1.086;2024-01-15T21:55:39;101104.87;;;-0.25;64.15
33265;BME280;31404;53.974;-1.086;2024-01-15T22:00:42;101120.17;;;-0.69;64.31
33265;BME280;31404;53.974;-1.086;2024-01-15T22:05:40;101121.81;;;0.16;63.63
33265;BME280;31404;53.974;-1.086;2024-01-15T22:10:37;101125.97;;;-2.14;68.38
33265;BME280;31404;53.974;-1.086;2024-01-15T22:15:37;101123.06;;;-1.38;69.02
33265;BME280;31404;53.974;-1.086;2024-01-15T22:25:39;101123.09;;;-0.72;65.15
33265;BME280;31404;53.974;-1.086;2024-01-15T22:30:38;101125.70;;;-1.55;66.55
33265;BME280;31404;53.974;-1.086;2024-01-15T22:35:38;101120.83;;;-2.81;70.20
33265;BME280;31404;53.974;-1.086;2024-01-15T22:40:37;101111.83;;;-0.13;64.50
33265;BME280;31404;53.974;-1.086;2024-01-15T22:45:38;101119.32;;;-0.99;65.81
33265;BME280;31404;53.974;-1.086;2024-01-15T22:50:40;101121.18;;;-0.86;65.87
33265;BME280;31404;53.974;-1.086;2024-01-15T22:55:38;101122.61;;;-2.19;70.82
33265;BME280;31404;53.974;-1.086;2024-01-15T23:00:38;101115.66;;;-1.51;67.39
33265;BME280;31404;53.974;-1.086;2024-01-15T23:05:38;101110.07;;;0.35;61.85
33265;BME280;31404;53.974;-1.086;2024-01-15T23:10:38;101122.25;;;-1.21;66.59
33265;BME280;31404;53.974;-1.086;2024-01-15T23:20:39;101114.75;;;0.14;63.28
33265;BME280;31404;53.974;-1.086;2024-01-15T23:25:40;101114.31;;;-0.25;64.87
33265;BME280;31404;53.974;-1.086;2024-01-15T23:30:40;101099.41;;;1.24;62.04
33265;BME280;31404;53.974;-1.086;2024-01-15T23:35:38;101089.41;;;1.36;60.73
33265;BME280;31404;53.974;-1.086;2024-01-15T23:40:35;101086.68;;;-0.04;62.92
33265;BME280;31404;53.974;-1.086;2024-01-15T23:45:40;101089.67;;;-0.66;65.82
33265;BME280;31404;53.974;-1.086;2024-01-15T23:50:38;101096.94;;;-1.41;70.34
33265;BME280;31404;53.974;-1.086;2024-01-15T23:55:41;101082.71;;;-0.62;67.36
